Sign-in with your pilot id or email, or register

ICAO: OMDB Name / Country: Dubai International Airport / United Arab Emirates
Latitude: 25.2528 Longitude: 55.3644
Total Arrivals:
Strict Standards: Non-static method AirportData::getarrflights() should not be called statically, assuming $this from incompatible context in /var/www/customers/vh-7192/web/home/phpvms/core/templates/airport_info.tpl on line 18
1
Total Departures:
Strict Standards: Non-static method AirportData::getdeptflights() should not be called statically, assuming $this from incompatible context in /var/www/customers/vh-7192/web/home/phpvms/core/templates/airport_info.tpl on line 21
1
Latest Arrival: MTA5PM (OLBA-OMDB) Tibor Berces Latest Departure: MTA5PM (OMDB-VABB) Tibor Berces
Metar: OMDB 270900Z 32010KT CAVOK 38/21 Q1005 NOSIG
More info

Charts for OMDB


NOTAM


Warning: file_get_contents(http://api.vateud.net/notams/OMDB.json): failed to open stream: Redirection limit reached, aborting in /var/www/customers/vh-7192/web/home/phpvms/core/common/NOTAMSData.class.php on line 18

Warning: Invalid argument supplied for foreach() in /var/www/customers/vh-7192/web/home/phpvms/core/common/NOTAMSData.class.php on line 22

Dubai International Airport